Time;durP1;ratioP1;P1;durP2;ratioP2;P2;SDS_P1;SDS_P2;PMS_P1;PMS_P2;Temp;Humidity;BMP_temperature;BMP_pressure;BME280_temperature;BME280_humidity;BME280_pressure;Samples;Min_cycle;Max_cycle;Signal;HPM_P1;HPM_P2
2023/08/16 00:01:27;;;;;;;4.27;3.47;;;;;;;20.80;100.00;98372.47;5051809;28;20238;-78
2023/08/16 00:03:53;;;;;;;4.63;3.83;;;;;;;20.77;100.00;98378.19;5052045;28;20204;-77
2023/08/16 00:06:20;;;;;;;4.00;3.60;;;;;;;20.75;100.00;98379.34;5051623;28;20630;-78
2023/08/16 00:08:48;;;;;;;4.83;3.60;;;;;;;20.74;100.00;98385.75;5051855;28;20278;-77
2023/08/16 00:11:14;;;;;;;4.03;3.50;;;;;;;20.71;100.00;98386.91;5051356;28;20710;-78
2023/08/16 00:13:41;;;;;;;4.67;3.80;;;;;;;20.71;100.00;98383.38;5051510;28;20232;-78
2023/08/16 00:16:07;;;;;;;5.47;3.57;;;;;;;20.66;100.00;98386.53;5051674;28;20204;-78
2023/08/16 00:18:34;;;;;;;4.03;3.63;;;;;;;20.62;100.00;98389.72;5051808;28;20210;-78
2023/08/16 00:21:01;;;;;;;4.57;3.70;;;;;;;20.58;100.00;98385.66;5051662;28;20270;-78
2023/08/16 00:23:27;;;;;;;4.40;3.77;;;;;;;20.59;100.00;98380.16;5051654;28;20206;-78
2023/08/16 00:25:56;;;;;;;4.40;3.73;;;;;;;20.58;100.00;98386.53;5051673;28;20649;-77
2023/08/16 00:28:23;;;;;;;5.73;3.83;;;;;;;20.55;100.00;98370.72;5051279;28;20298;-78
2023/08/16 00:30:52;;;;;;;6.27;4.57;;;;;;;20.68;100.00;98363.06;5051137;28;20713;-77
2023/08/16 00:33:18;;;;;;;5.50;4.20;;;;;;;20.78;100.00;98362.94;5051252;28;20215;-78
2023/08/16 00:35:45;;;;;;;5.40;3.97;;;;;;;20.73;100.00;98360.72;5051453;28;20204;-78
2023/08/16 00:38:11;;;;;;;4.93;4.07;;;;;;;20.72;100.00;98352.84;5051254;28;20219;-78
2023/08/16 00:40:37;;;;;;;4.87;4.13;;;;;;;20.65;100.00;98359.84;5051138;28;20208;-78
2023/08/16 00:43:06;;;;;;;4.90;4.17;;;;;;;20.55;100.00;98362.66;5051050;28;20710;-77
2023/08/16 00:45:33;;;;;;;4.30;3.90;;;;;;;20.56;100.00;98366.19;5051371;28;20208;-78
2023/08/16 00:47:59;;;;;;;5.43;4.23;;;;;;;20.50;100.00;98367.72;5051329;28;20211;-77
2023/08/16 00:50:26;;;;;;;4.90;4.30;;;;;;;20.43;100.00;98363.13;5051054;28;20216;-77
2023/08/16 00:52:53;;;;;;;4.30;3.90;;;;;;;20.35;100.00;98349.69;5051081;28;20227;-78
2023/08/16 00:55:20;;;;;;;4.10;3.70;;;;;;;20.25;100.00;98352.47;5051006;28;20289;-78
2023/08/16 00:57:47;;;;;;;3.93;3.60;;;;;;;20.14;100.00;98357.28;5050993;28;20674;-78
2023/08/16 01:00:16;;;;;;;4.87;4.40;;;;;;;20.07;100.00;98362.47;5048497;28;20212;-78
2023/08/16 01:02:42;;;;;;;5.70;4.97;;;;;;;20.04;100.00;98362.75;5048641;28;20228;-78
2023/08/16 01:05:09;;;;;;;6.77;5.00;;;;;;;19.98;100.00;98359.84;5048357;28;20219;-78
2023/08/16 01:07:35;;;;;;;5.50;4.50;;;;;;;19.89;100.00;98350.06;5049161;28;20208;-78
2023/08/16 01:10:03;;;;;;;5.60;5.10;;;;;;;19.82;100.00;98344.47;5050552;28;20211;-78
2023/08/16 01:12:35;;;;;;;5.73;4.53;;;;;;;19.77;100.00;98345.97;5051150;28;20243;-78
2023/08/16 01:15:07;;;;;;;5.50;4.47;;;;;;;19.69;100.00;98337.88;5051014;28;20293;-78
2023/08/16 01:17:35;;;;;;;5.27;4.70;;;;;;;19.62;100.00;98318.88;5051000;28;20592;-78
2023/08/16 01:20:04;;;;;;;5.67;5.10;;;;;;;19.56;100.00;98329.41;5054059;28;20222;-78
2023/08/16 01:22:38;;;;;;;6.63;5.87;;;;;;;19.47;100.00;98328.50;5054775;28;20265;-78
2023/08/16 01:25:12;;;;;;;6.63;5.03;;;;;;;19.44;100.00;98328.00;5055195;28;20216;-78
2023/08/16 01:27:41;;;;;;;6.10;5.43;;;;;;;19.46;100.00;98324.16;5054893;28;20207;-78
2023/08/16 01:30:10;;;;;;;8.63;6.03;;;;;;;19.46;100.00;98317.94;5054566;28;20238;-78
2023/08/16 01:32:38;;;;;;;6.40;5.80;;;;;;;19.38;100.00;98321.41;5054684;28;20726;-81
2023/08/16 01:35:05;;;;;;;6.03;5.43;;;;;;;19.35;100.00;98321.72;5054519;28;20235;-77
2023/08/16 01:37:31;;;;;;;6.73;6.03;;;;;;;19.29;100.00;98316.97;5054734;28;20212;-77
2023/08/16 01:40:03;;;;;;;6.27;5.60;;;;;;;19.26;100.00;98309.25;5054540;28;20204;-77
2023/08/16 01:42:33;;;;;;;7.30;5.77;;;;;;;19.25;100.00;98314.75;5054488;28;20234;-77
2023/08/16 01:45:01;;;;;;;6.07;5.47;;;;;;;19.21;100.00;98319.56;5054561;28;20590;-77
2023/08/16 01:47:29;;;;;;;6.63;5.73;;;;;;;19.20;100.00;98317.91;5054769;28;20204;-77
2023/08/16 01:49:56;;;;;;;7.40;6.37;;;;;;;19.16;100.00;98316.50;5054056;28;20208;-77
2023/08/16 01:52:25;;;;;;;6.60;5.93;;;;;;;19.16;100.00;98319.19;5054332;28;20235;-77
2023/08/16 01:54:52;;;;;;;7.53;5.80;;;;;;;19.12;100.00;98315.13;5054190;28;20224;-77
2023/08/16 01:57:18;;;;;;;6.03;5.43;;;;;;;19.11;100.00;98315.28;5054470;28;20212;-77
2023/08/16 01:59:45;;;;;;;6.70;6.00;;;;;;;19.10;100.00;98311.78;5054010;28;20211;-77
2023/08/16 02:02:13;;;;;;;6.73;5.73;;;;;;;19.13;100.00;98315.97;5053995;28;20239;-77
2023/08/16 02:04:39;;;;;;;6.37;5.60;;;;;;;19.13;100.00;98306.09;5054299;28;20204;-77
2023/08/16 02:07:06;;;;;;;7.10;5.70;;;;;;;19.13;100.00;98298.06;5053957;28;20223;-77
2023/08/16 02:09:32;;;;;;;6.30;5.70;;;;;;;19.14;100.00;98294.38;5053952;28;20234;-77
2023/08/16 02:11:59;;;;;;;6.20;5.23;;;;;;;19.14;100.00;98291.69;5054055;28;20268;-77
2023/08/16 02:14:25;;;;;;;6.13;5.53;;;;;;;19.13;100.00;98290.00;5053865;28;20729;-77
2023/08/16 02:16:52;;;;;;;8.33;6.17;;;;;;;19.25;100.00;98294.16;5054035;28;20281;-77
2023/08/16 02:19:20;;;;;;;7.23;6.53;;;;;;;19.32;100.00;98289.84;5053676;28;20231;-77
2023/08/16 02:21:46;;;;;;;7.20;6.00;;;;;;;19.25;100.00;98287.94;5053690;28;20251;-77
2023/08/16 02:24:12;;;;;;;6.03;5.43;;;;;;;19.23;100.00;98287.28;5053896;28;20203;-77
2023/08/16 02:26:39;;;;;;;8.23;6.30;;;;;;;19.22;100.00;98289.13;5053804;28;20206;-77
2023/08/16 02:29:06;;;;;;;5.83;5.20;;;;;;;19.19;100.00;98276.00;5052972;28;20216;-77
2023/08/16 02:31:32;;;;;;;7.43;5.80;;;;;;;19.14;100.00;98270.25;5067738;22;20247;-80
2023/08/16 02:33:58;;;;;;;7.37;5.93;;;;;;;19.15;100.00;98274.59;5033944;28;20235;-81
2023/08/16 02:36:26;;;;;;;6.83;5.93;;;;;;;19.12;100.00;98271.41;5033968;28;20593;-81
2023/08/16 02:38:53;;;;;;;6.67;5.77;;;;;;;19.08;100.00;98268.19;5033798;28;20208;-82
2023/08/16 02:41:19;;;;;;;6.23;5.07;;;;;;;19.04;100.00;98268.66;5033454;28;20684;-82
2023/08/16 02:43:46;;;;;;;6.07;5.40;;;;;;;18.97;100.00;98267.63;5033843;28;20235;-81
2023/08/16 02:46:12;;;;;;;6.40;5.57;;;;;;;18.94;100.00;98266.09;5033525;28;20236;-80
2023/08/16 02:48:39;;;;;;;5.97;5.27;;;;;;;18.95;100.00;98265.09;5033735;28;20209;-82
2023/08/16 02:51:06;;;;;;;5.97;5.37;;;;;;;18.97;100.00;98273.78;5033221;28;20742;-81
2023/08/16 02:53:34;;;;;;;6.50;5.77;;;;;;;19.01;100.00;98275.19;5033772;28;20232;-81
2023/08/16 02:56:00;;;;;;;6.50;5.80;;;;;;;19.02;100.00;98271.50;5033393;28;20237;-80
2023/08/16 02:58:27;;;;;;;6.50;5.50;;;;;;;18.99;100.00;98276.31;5033436;28;20714;-79
2023/08/16 03:00:53;;;;;;;6.57;5.83;;;;;;;18.96;100.00;98277.47;5043610;28;20223;-80
2023/08/16 03:03:20;;;;;;;7.90;5.53;;;;;;;18.95;100.00;98269.63;5045362;28;20251;-80
2023/08/16 03:05:47;;;;;;;8.07;5.93;;;;;;;18.94;100.00;98267.91;5045118;28;20212;-81
2023/08/16 03:08:13;;;;;;;6.93;5.50;;;;;;;18.94;100.00;98276.78;5044572;28;20251;-81
2023/08/16 03:10:41;;;;;;;6.90;6.20;;;;;;;18.94;100.00;98271.44;5032927;28;20209;-81
2023/08/16 03:13:08;;;;;;;8.10;6.40;;;;;;;18.93;100.00;98275.13;5033339;28;20240;-81
2023/08/16 03:15:35;;;;;;;6.33;5.57;;;;;;;18.93;100.00;98276.94;5033501;28;20224;-80
2023/08/16 03:18:01;;;;;;;6.40;5.60;;;;;;;18.88;100.00;98274.72;5034763;28;20208;-81
2023/08/16 03:20:28;;;;;;;6.20;5.60;;;;;;;18.83;100.00;98282.38;5033739;28;20215;-80
2023/08/16 03:22:54;;;;;;;6.10;5.50;;;;;;;18.84;100.00;98289.41;5033298;28;20745;-81
2023/08/16 03:25:21;;;;;;;7.53;6.40;;;;;;;18.84;100.00;98294.78;5033004;28;20601;-80
2023/08/16 03:27:49;;;;;;;8.03;6.40;;;;;;;18.92;100.00;98308.25;5032790;28;20218;-81
2023/08/16 03:30:15;;;;;;;6.87;5.90;;;;;;;18.90;100.00;98314.75;5032618;28;20213;-82
2023/08/16 03:32:42;;;;;;;6.03;5.43;;;;;;;18.94;100.00;98316.13;5032729;28;20240;-81
2023/08/16 03:35:09;;;;;;;7.20;5.70;;;;;;;18.90;100.00;98325.47;5032779;28;20228;-81
2023/08/16 03:37:36;;;;;;;6.43;5.70;;;;;;;18.91;100.00;98327.16;5032752;28;20209;-82
2023/08/16 03:40:02;;;;;;;8.07;5.90;;;;;;;18.91;100.00;98336.00;5032313;28;20220;-81
2023/08/16 03:42:29;;;;;;;6.90;5.53;;;;;;;18.98;100.00;98339.78;5034517;28;20300;-81
2023/08/16 03:44:57;;;;;;;8.60;6.57;;;;;;;19.07;100.00;98341.53;5041803;28;20216;-79
2023/08/16 03:47:23;;;;;;;7.63;6.10;;;;;;;19.10;100.00;98335.88;5038362;28;20213;-79
2023/08/16 03:49:50;;;;;;;6.33;5.70;;;;;;;19.12;100.00;98351.78;5033020;28;20239;-80
2023/08/16 03:52:16;;;;;;;7.77;6.60;;;;;;;19.12;100.00;98363.34;5032860;28;20228;-80
2023/08/16 03:54:43;;;;;;;8.60;6.57;;;;;;;19.20;100.00;98373.31;5032807;28;20237;-80
2023/08/16 03:57:09;;;;;;;9.07;7.00;;;;;;;19.25;100.00;98377.25;5032817;28;20259;-82
2023/08/16 03:59:36;;;;;;;9.27;6.77;;;;;;;19.37;100.00;98384.06;5032132;28;20204;-81
2023/08/16 04:02:04;;;;;;;9.07;6.77;;;;;;;19.43;100.00;98390.63;5032378;28;20225;-81
2023/08/16 04:04:30;;;;;;;8.67;6.87;;;;;;;19.39;100.00;98403.50;5032109;28;20204;-81
2023/08/16 04:06:57;;;;;;;7.30;6.33;;;;;;;19.39;100.00;98414.22;5032264;28;20204;-80
2023/08/16 04:09:24;;;;;;;8.37;6.43;;;;;;;19.33;100.00;98414.81;5031706;28;20719;-80
2023/08/16 04:11:51;;;;;;;8.47;6.90;;;;;;;19.31;100.00;98408.78;5032003;28;20726;-81
2023/08/16 04:14:17;;;;;;;9.80;6.50;;;;;;;19.22;100.00;98407.03;5032085;28;20209;-81
2023/08/16 04:16:44;;;;;;;6.93;5.70;;;;;;;19.13;100.00;98402.56;5032395;28;20212;-82
2023/08/16 04:19:12;;;;;;;7.63;6.43;;;;;;;19.10;100.00;98424.31;5031756;28;20220;-82
2023/08/16 04:21:39;;;;;;;7.47;6.20;;;;;;;19.09;100.00;98414.56;5031806;28;20236;-81
2023/08/16 04:24:06;;;;;;;6.80;6.00;;;;;;;19.08;100.00;98420.91;5032063;28;20292;-81
2023/08/16 04:26:33;;;;;;;6.53;5.53;;;;;;;19.03;100.00;98420.53;5031964;28;20679;-81
2023/08/16 04:28:59;;;;;;;7.70;5.40;;;;;;;19.07;100.00;98419.22;5031845;28;20228;-81
2023/08/16 04:31:26;;;;;;;6.47;5.50;;;;;;;19.02;100.00;98413.47;5031463;28;20224;-81
2023/08/16 04:33:52;;;;;;;6.60;5.90;;;;;;;18.93;100.00;98418.91;5032011;28;20212;-81
2023/08/16 04:36:20;;;;;;;6.93;5.50;;;;;;;18.91;100.00;98420.91;5031523;28;20240;-81
2023/08/16 04:38:46;;;;;;;6.23;5.40;;;;;;;19.02;100.00;98416.16;5031765;28;20217;-80
2023/08/16 04:41:13;;;;;;;6.17;5.10;;;;;;;18.92;100.00;98404.69;5031195;28;20213;-80
2023/08/16 04:43:39;;;;;;;5.77;4.97;;;;;;;18.84;100.00;98407.25;5031649;28;20288;-82
2023/08/16 04:46:06;;;;;;;6.23;5.23;;;;;;;18.77;100.00;98398.16;5031698;28;20576;-81
2023/08/16 04:48:32;;;;;;;6.23;5.37;;;;;;;18.72;100.00;98399.59;5031438;28;20450;-81
2023/08/16 04:50:59;;;;;;;6.73;5.80;;;;;;;18.71;100.00;98401.41;5031062;28;20210;-81
2023/08/16 04:53:27;;;;;;;6.60;5.17;;;;;;;18.68;100.00;98404.41;5031132;28;20687;-81
2023/08/16 04:55:54;;;;;;;6.57;5.63;;;;;;;18.68;100.00;98396.38;5031233;28;20240;-81
2023/08/16 04:58:20;;;;;;;7.53;6.00;;;;;;;18.69;100.00;98382.00;5031302;28;20649;-82
2023/08/16 05:00:47;;;;;;;6.77;6.07;;;;;;;18.76;100.00;98377.72;5031167;28;20210;-82
2023/08/16 05:03:13;;;;;;;10.53;7.07;;;;;;;18.77;100.00;98373.22;5031059;28;20713;-80
2023/08/16 05:05:40;;;;;;;7.77;6.73;;;;;;;18.88;100.00;98367.63;5031158;28;20207;-81
2023/08/16 05:08:06;;;;;;;10.37;6.93;;;;;;;18.92;100.00;98356.47;5031670;28;20216;-80
2023/08/16 05:10:34;;;;;;;9.27;7.10;;;;;;;18.90;100.00;98355.75;5031258;28;20204;-81
2023/08/16 05:13:01;;;;;;;8.43;7.13;;;;;;;18.94;100.00;98354.47;5031191;28;20232;-81
2023/08/16 05:15:27;;;;;;;8.83;6.77;;;;;;;18.95;100.00;98355.34;5031204;28;20236;-81
2023/08/16 05:17:53;;;;;;;9.50;6.80;;;;;;;18.97;100.00;98348.78;5031173;28;20208;-81
2023/08/16 05:20:20;;;;;;;8.13;6.67;;;;;;;19.06;100.00;98355.94;5030794;28;20211;-82
2023/08/16 05:22:46;;;;;;;8.63;7.50;;;;;;;19.18;100.00;98346.66;5031291;28;20252;-81
2023/08/16 05:25:13;;;;;;;9.13;6.90;;;;;;;19.22;100.00;98337.38;5031284;28;20212;-81
2023/08/16 05:27:41;;;;;;;7.60;6.40;;;;;;;19.31;100.00;98348.97;5031170;28;20671;-81
2023/08/16 05:30:08;;;;;;;10.20;7.17;;;;;;;19.41;100.00;98347.06;5031044;28;20208;-81
2023/08/16 05:32:34;;;;;;;8.60;6.30;;;;;;;19.55;100.00;98350.00;5030927;28;20243;-77
2023/08/16 05:35:01;;;;;;;8.83;7.13;;;;;;;19.64;100.00;98341.00;5031459;28;20235;-77
2023/08/16 05:37:27;;;;;;;9.03;7.03;;;;;;;19.77;100.00;98349.50;5031092;28;20662;-77
2023/08/16 05:39:54;;;;;;;7.07;6.20;;;;;;;19.85;100.00;98357.59;5030892;28;20236;-77
2023/08/16 05:42:20;;;;;;;6.30;5.70;;;;;;;20.04;100.00;98362.75;5031001;28;20242;-77
2023/08/16 05:44:48;;;;;;;8.93;7.40;;;;;;;20.25;100.00;98376.63;5030965;28;20208;-76
2023/08/16 05:47:15;;;;;;;6.73;5.83;;;;;;;20.37;100.00;98369.97;5030727;28;20208;-78
2023/08/16 05:49:41;;;;;;;7.47;5.93;;;;;;;20.51;100.00;98382.81;5030645;28;20219;-81
2023/08/16 05:52:08;;;;;;;7.30;5.63;;;;;;;20.68;100.00;98389.94;5031053;28;20250;-77
2023/08/16 05:54:34;;;;;;;5.47;4.93;;;;;;;20.82;100.00;98377.69;5030989;28;20216;-76
2023/08/16 05:57:01;;;;;;;6.30;5.47;;;;;;;21.18;100.00;98381.84;5030732;28;20304;-76
2023/08/16 05:59:28;;;;;;;7.10;4.77;;;;;;;21.62;100.00;98377.81;5030443;28;20223;-78
2023/08/16 06:01:55;;;;;;;7.37;5.70;;;;;;;22.02;100.00;98377.81;5030474;28;20746;-78
2023/08/16 06:04:22;;;;;;;9.37;5.50;;;;;;;22.45;100.00;98377.38;5031259;28;20205;-76
2023/08/16 06:06:49;;;;;;;6.07;5.47;;;;;;;22.87;100.00;98381.38;5034550;28;20208;-78
2023/08/16 06:09:15;;;;;;;5.47;4.73;;;;;;;23.46;100.00;98383.41;5034119;28;20209;-76
2023/08/16 06:11:42;;;;;;;5.90;5.27;;;;;;;23.98;100.00;98378.06;5034159;28;20231;-78
2023/08/16 06:14:08;;;;;;;5.13;4.53;;;;;;;24.44;100.00;98358.81;5032775;28;20430;-79
2023/08/16 06:16:35;;;;;;;6.53;4.63;;;;;;;24.79;100.00;98371.59;5032662;28;20232;-78
2023/08/16 06:19:03;;;;;;;5.13;4.63;;;;;;;24.60;100.00;98368.63;5033440;28;20219;-77
2023/08/16 06:21:30;;;;;;;5.67;4.53;;;;;;;24.22;100.00;98384.09;5033224;28;20591;-76
2023/08/16 06:23:57;;;;;;;4.53;4.13;;;;;;;24.15;100.00;98376.91;5032927;28;20437;-75
2023/08/16 06:26:24;;;;;;;4.73;4.07;;;;;;;24.05;100.00;98379.88;5034154;28;20208;-76
2023/08/16 06:28:51;;;;;;;5.90;4.83;;;;;;;23.87;100.00;98381.19;5033814;28;20204;-76
2023/08/16 06:31:18;;;;;;;5.07;3.90;;;;;;;23.74;100.00;98380.97;5033730;28;20209;-76
2023/08/16 06:33:44;;;;;;;4.87;4.20;;;;;;;23.52;100.00;98388.06;5033514;28;20308;-76
2023/08/16 06:36:12;;;;;;;4.33;3.60;;;;;;;23.34;100.00;98384.84;5033769;28;20722;-74
2023/08/16 06:38:39;;;;;;;4.30;3.90;;;;;;;23.19;100.00;98381.25;5033846;28;20220;-77
2023/08/16 06:41:06;;;;;;;4.20;3.80;;;;;;;23.10;100.00;98397.63;5033443;28;20217;-76
2023/08/16 06:43:32;;;;;;;4.60;4.10;;;;;;;23.08;100.00;98388.84;5032612;28;20445;-75
2023/08/16 06:45:59;;;;;;;4.50;4.10;;;;;;;22.97;100.00;98394.66;5033746;28;20216;-76
2023/08/16 06:48:25;;;;;;;4.50;3.57;;;;;;;22.91;100.00;98388.13;5033864;28;20204;-76
2023/08/16 06:50:51;;;;;;;4.70;4.30;;;;;;;22.87;100.00;98392.16;5033451;28;20220;-76
2023/08/16 06:53:19;;;;;;;4.70;4.30;;;;;;;22.87;100.00;98392.16;5033422;28;20225;-76
2023/08/16 06:55:46;;;;;;;4.97;4.20;;;;;;;22.88;100.00;98391.19;5033416;28;20232;-76
2023/08/16 06:58:12;;;;;;;5.67;4.60;;;;;;;22.93;100.00;98388.75;5033273;28;20809;-77
2023/08/16 07:00:45;;;;;;;4.93;3.93;;;;;;;23.10;100.00;98395.75;5033201;28;20213;-77
2023/08/16 07:03:12;;;;;;;5.43;4.60;;;;;;;23.23;100.00;98392.50;5033269;28;20278;-78
2023/08/16 07:05:38;;;;;;;9.33;4.30;;;;;;;23.38;100.00;98394.25;5033263;28;20211;-78
2023/08/16 07:08:06;;;;;;;6.00;4.37;;;;;;;23.49;100.00;98399.25;5033361;28;20216;-78
2023/08/16 07:10:34;;;;;;;4.37;3.97;;;;;;;23.67;100.00;98393.53;5032782;28;20204;-78
2023/08/16 07:13:02;;;;;;;4.60;4.20;;;;;;;23.75;100.00;98388.91;5032967;28;20233;-78
2023/08/16 07:15:29;;;;;;;4.50;4.10;;;;;;;23.81;100.00;98382.78;5032703;28;20615;-78
2023/08/16 07:17:55;;;;;;;4.43;4.00;;;;;;;23.83;100.00;98385.28;5032288;28;20209;-78
2023/08/16 07:20:22;;;;;;;4.60;4.10;;;;;;;23.87;100.00;98391.97;5032954;28;20205;-77
2023/08/16 07:22:49;;;;;;;4.00;3.60;;;;;;;23.91;100.00;98393.34;5033106;28;20235;-78
2023/08/16 07:25:15;;;;;;;4.20;3.80;;;;;;;23.94;100.00;98393.81;5033728;28;20205;-78
2023/08/16 07:27:43;;;;;;;5.03;4.33;;;;;;;24.03;100.00;98397.28;5034069;28;20579;-78
2023/08/16 07:30:10;;;;;;;4.40;4.00;;;;;;;24.09;100.00;98400.06;5033957;28;20212;-78
2023/08/16 07:32:36;;;;;;;4.43;4.03;;;;;;;24.17;100.00;98393.75;5033525;28;20244;-79
2023/08/16 07:35:03;;;;;;;4.57;4.17;;;;;;;24.19;100.00;98392.53;5032750;28;20216;-77
2023/08/16 07:37:31;;;;;;;5.30;4.30;;;;;;;24.21;100.00;98395.88;5032456;28;20258;-77
2023/08/16 07:39:58;;;;;;;5.30;4.57;;;;;;;24.18;100.00;98395.41;5032267;28;20300;-79
2023/08/16 07:42:24;;;;;;;4.60;4.07;;;;;;;24.19;100.00;98392.53;5032382;28;20719;-77
2023/08/16 07:44:53;;;;;;;7.47;4.77;;;;;;;24.14;100.00;98397.66;5032604;28;20612;-77
2023/08/16 07:47:20;;;;;;;5.87;4.33;;;;;;;24.19;100.00;98392.53;5032353;28;20834;-77
2023/08/16 07:49:46;;;;;;;5.30;4.80;;;;;;;24.31;98.88;98382.97;5032051;28;20211;-78
2023/08/16 07:52:13;;;;;;;4.63;4.20;;;;;;;24.28;97.92;98390.59;5032198;28;20247;-78
2023/08/16 07:54:39;;;;;;;5.83;5.20;;;;;;;24.35;96.09;98392.38;5032261;28;20208;-78
2023/08/16 07:57:06;;;;;;;5.30;4.80;;;;;;;24.36;97.37;98391.34;5032414;28;20251;-78
2023/08/16 07:59:33;;;;;;;5.57;4.90;;;;;;;24.42;98.64;98398.72;5032013;28;20209;-78
2023/08/16 08:02:00;;;;;;;5.10;4.60;;;;;;;24.50;98.24;98395.91;5032133;28;20231;-78
2023/08/16 08:04:27;;;;;;;6.03;4.60;;;;;;;24.70;96.89;98393.50;5032104;28;20205;-78
2023/08/16 08:06:53;;;;;;;6.30;4.83;;;;;;;24.79;96.22;98389.66;5032255;28;20201;-78
2023/08/16 08:09:20;;;;;;;5.13;4.63;;;;;;;24.89;97.51;98390.22;5031731;28;20212;-77
2023/08/16 08:11:46;;;;;;;5.40;4.90;;;;;;;25.01;95.45;98384.16;5031892;28;20229;-78
2023/08/16 08:14:13;;;;;;;5.80;4.73;;;;;;;25.05;94.83;98388.13;5032007;28;20205;-77
2023/08/16 08:16:39;;;;;;;5.07;4.57;;;;;;;25.02;95.39;98388.53;5031796;28;20234;-79
2023/08/16 08:19:07;;;;;;;5.13;4.63;;;;;;;25.19;95.80;98381.00;5031763;28;20590;-79
2023/08/16 08:21:34;;;;;;;5.00;4.57;;;;;;;25.24;94.20;98382.13;5031693;28;20232;-79
2023/08/16 08:24:01;;;;;;;5.10;4.33;;;;;;;25.43;95.00;98389.59;5032013;28;20562;-77
2023/08/16 08:26:27;;;;;;;5.27;4.77;;;;;;;25.56;93.25;98383.50;5032049;28;20209;-79
2023/08/16 08:28:54;;;;;;;6.30;4.80;;;;;;;25.67;92.66;98385.69;5031556;28;20219;-77
2023/08/16 08:31:21;;;;;;;5.73;4.77;;;;;;;25.75;93.01;98383.69;5031469;28;20242;-79
2023/08/16 08:33:47;;;;;;;5.23;4.60;;;;;;;25.83;91.28;98380.84;5060009;22;20236;-86
2023/08/16 08:36:15;;;;;;;5.20;4.70;;;;;;;25.94;91.89;98385.75;5051437;28;20224;-87
2023/08/16 08:38:42;;;;;;;6.30;5.10;;;;;;;26.02;88.46;98377.47;5051616;28;20208;-86
2023/08/16 08:41:09;;;;;;;5.30;4.80;;;;;;;26.00;88.74;98379.56;5051304;28;20208;-86
2023/08/16 08:43:37;;;;;;;5.50;5.00;;;;;;;26.01;91.40;98383.09;5051329;28;20228;-86
2023/08/16 08:46:04;;;;;;;6.83;5.47;;;;;;;26.05;91.59;98387.94;5051431;28;20200;-84
2023/08/16 08:48:31;;;;;;;5.20;4.70;;;;;;;26.15;91.01;98385.69;5051262;28;20212;-83
2023/08/16 08:51:00;;;;;;;5.90;4.80;;;;;;;26.20;90.92;98382.41;5050891;28;20212;-83
2023/08/16 08:53:28;;;;;;;7.03;5.20;;;;;;;26.24;89.94;98384.53;5050900;28;20255;-83
2023/08/16 08:55:57;;;;;;;5.80;5.30;;;;;;;26.26;89.57;98382.44;5050971;28;20223;-83
2023/08/16 08:58:24;;;;;;;5.15;4.65;;;;;;;26.38;87.77;98380.84;5050969;28;20215;-83
2023/08/16 09:00:53;;;;;;;5.88;5.38;;;;;;;26.43;89.11;98394.66;5050786;28;20218;-83
2023/08/16 09:03:23;;;;;;;6.72;5.63;;;;;;;26.52;87.75;98388.03;5050839;28;20238;-83
2023/08/16 09:05:52;;;;;;;5.83;5.23;;;;;;;26.64;84.33;98374.78;5051117;28;20784;-83
2023/08/16 09:08:18;;;;;;;5.57;5.07;;;;;;;26.53;84.31;98384.31;5050974;28;20208;-84
2023/08/16 09:10:46;;;;;;;5.65;5.15;;;;;;;26.50;84.45;98379.25;5050926;28;20211;-83
2023/08/16 09:13:13;;;;;;;6.20;5.60;;;;;;;26.70;84.18;98380.22;5050881;28;20224;-83
2023/08/16 09:15:41;;;;;;;5.80;5.30;;;;;;;26.91;84.44;98371.13;5050858;28;20226;-81
2023/08/16 09:18:11;;;;;;;5.73;5.07;;;;;;;27.27;82.51;98364.41;5050797;28;20228;-84
2023/08/16 09:20:38;;;;;;;5.57;5.00;;;;;;;27.57;79.25;98357.59;5050733;28;20663;-85
2023/08/16 09:23:06;;;;;;;5.25;4.85;;;;;;;27.74;77.98;98342.53;5051028;28;20223;-84
2023/08/16 09:25:32;;;;;;;5.95;5.03;;;;;;;27.87;76.40;98342.56;5051042;28;20231;-83
2023/08/16 09:28:01;;;;;;;5.47;4.97;;;;;;;27.93;76.88;98336.28;5050871;28;20212;-85
2023/08/16 09:30:28;;;;;;;5.55;5.05;;;;;;;27.91;75.26;98322.06;5050571;28;20212;-84
2023/08/16 09:32:55;;;;;;;5.65;5.10;;;;;;;27.87;75.92;98326.25;5050829;28;20741;-83
2023/08/16 09:35:27;;;;;;;5.47;4.97;;;;;;;27.73;78.47;98335.44;5051135;28;20212;-86
2023/08/16 09:37:56;;;;;;;6.05;5.07;;;;;;;27.72;80.39;98344.63;5050643;28;20224;-81
2023/08/16 09:40:22;;;;;;;5.40;4.90;;;;;;;27.79;80.71;98345.50;5052660;28;20613;-81
2023/08/16 09:42:49;;;;;;;5.82;5.20;;;;;;;27.93;79.49;98337.13;5054663;28;20227;-82
2023/08/16 09:45:26;;;;;;;5.10;4.60;;;;;;;28.02;78.14;98319.56;5054512;28;20208;-85
2023/08/16 09:47:53;;;;;;;5.85;5.07;;;;;;;28.02;76.80;98322.28;5054775;28;20230;-83
2023/08/16 09:50:22;;;;;;;6.25;5.00;;;;;;;28.13;77.07;98320.81;5054257;28;20586;-82
2023/08/16 09:52:49;;;;;;;5.65;5.00;;;;;;;28.22;76.58;98317.66;5052469;28;20446;-83
2023/08/16 09:55:24;;;;;;;5.55;4.95;;;;;;;28.34;75.56;98315.09;5053023;28;20234;-83
2023/08/16 09:57:51;;;;;;;6.00;5.35;;;;;;;28.40;74.46;98317.84;5047155;28;20509;-80
2023/08/16 10:00:20;;;;;;;5.65;5.05;;;;;;;28.37;72.01;98303.84;5052150;28;20307;-81
2023/08/16 10:02:48;;;;;;;5.38;4.90;;;;;;;28.39;73.39;98312.63;5052817;28;20453;-81
2023/08/16 10:05:17;;;;;;;5.60;4.90;;;;;;;28.41;73.57;98313.22;5054086;28;20239;-81
2023/08/16 10:07:43;;;;;;;7.43;5.68;;;;;;;28.32;73.65;98314.50;5054060;28;20285;-81
2023/08/16 10:10:13;;;;;;;5.53;5.03;;;;;;;28.26;74.07;98304.47;5053677;28;20208;-81
2023/08/16 10:12:39;;;;;;;6.43;4.88;;;;;;;28.21;73.38;98305.09;5054236;28;20234;-81
2023/08/16 10:15:07;;;;;;;5.57;5.07;;;;;;;28.30;73.82;98300.28;5054112;28;20212;-80
2023/08/16 10:17:38;;;;;;;5.80;5.30;;;;;;;28.44;71.08;98289.16;5054077;28;20232;-80
2023/08/16 10:20:06;;;;;;;5.85;4.97;;;;;;;28.44;72.13;98296.50;5047553;28;20486;-80
2023/08/16 10:22:37;;;;;;;5.80;5.15;;;;;;;28.43;74.04;98308.44;5052552;28;20734;-79
2023/08/16 10:25:10;;;;;;;5.57;5.07;;;;;;;28.49;73.59;98315.72;5051050;28;20208;-80
2023/08/16 10:27:38;;;;;;;5.63;5.05;;;;;;;28.42;72.99;98304.03;5052355;28;20212;-80
2023/08/16 10:30:09;;;;;;;8.18;4.88;;;;;;;28.43;71.84;98301.09;5052215;28;20952;-81
2023/08/16 10:32:41;;;;;;;5.97;5.05;;;;;;;28.53;70.96;98295.19;5051664;28;20791;-81
2023/08/16 10:35:10;;;;;;;5.55;5.05;;;;;;;28.72;69.83;98286.97;5051325;28;20639;-81
2023/08/16 10:37:37;;;;;;;6.63;5.05;;;;;;;28.71;68.68;98279.00;5051811;28;20227;-81
2023/08/16 10:40:05;;;;;;;5.32;4.93;;;;;;;28.66;68.98;98273.38;5051538;28;20199;-81
2023/08/16 10:42:32;;;;;;;5.82;5.10;;;;;;;28.69;70.20;98279.25;5051854;28;20228;-81
2023/08/16 10:44:58;;;;;;;5.30;4.80;;;;;;;28.75;69.31;98278.38;5051971;28;20212;-79
2023/08/16 10:47:29;;;;;;;5.47;4.97;;;;;;;28.86;71.10;98288.56;5051702;28;20298;-80
2023/08/16 10:49:59;;;;;;;5.68;5.18;;;;;;;29.00;69.17;98273.88;5051453;28;20208;-81
2023/08/16 10:52:29;;;;;;;5.40;4.90;;;;;;;29.20;74.37;98300.94;5051878;28;20232;-81
2023/08/16 10:54:56;;;;;;;6.10;5.43;;;;;;;29.36;70.44;98275.94;5051540;28;20212;-81
2023/08/16 10:57:25;;;;;;;6.72;5.10;;;;;;;29.38;68.53;98271.06;5052238;28;20228;-81
2023/08/16 11:00:03;;;;;;;5.50;5.00;;;;;;;29.40;71.81;98282.59;5052068;28;20258;-81
2023/08/16 11:02:31;;;;;;;6.63;5.03;;;;;;;29.50;68.57;98266.59;5052264;28;20318;-81
2023/08/16 11:04:59;;;;;;;5.82;5.20;;;;;;;29.49;66.50;98254.88;5051110;28;20211;-81
2023/08/16 11:07:26;;;;;;;6.45;5.20;;;;;;;29.28;69.72;98271.56;5052239;28;20200;-81
2023/08/16 11:09:53;;;;;;;5.78;5.28;;;;;;;29.32;69.83;98274.69;5051848;28;20214;-79
2023/08/16 11:12:19;;;;;;;5.35;4.85;;;;;;;29.33;70.11;98265.47;5051864;28;20204;-79
2023/08/16 11:14:46;;;;;;;5.60;5.10;;;;;;;29.37;69.43;98258.53;5051726;28;20211;-79
2023/08/16 11:17:14;;;;;;;6.20;5.60;;;;;;;29.38;67.92;98254.75;5052359;28;20284;-79
2023/08/16 11:19:41;;;;;;;6.32;5.57;;;;;;;29.30;70.11;98260.47;5052523;28;20208;-78
2023/08/16 11:22:11;;;;;;;5.55;4.95;;;;;;;29.37;68.82;98256.66;5052731;28;20204;-78
2023/08/16 11:24:38;;;;;;;5.60;5.05;;;;;;;29.34;68.60;98251.63;5052636;28;20214;-78
2023/08/16 11:27:05;;;;;;;5.47;4.97;;;;;;;29.41;68.34;98259.75;5052708;28;20234;-78